Airfield :
LOGIN :

Register | Disclaimer

   EN    FR    IT 

 










Legend :    VFR   Marginal VFR   IFR   Intensive IFR   Very Intensive IFR
Visi :
Ceiling :
>= 8 km
>= 3000ft
5 to 8 km
1000 to 3000 ft
1500m to 5 km
500 to 1000 ft
800 to 1500m
200 to 500 ft
< 800m
< 200 ft
Symbols :   Thunderstorms  Fog  Heavy snow  Heavy precipitations  Wind > 20 kt
SIGMETs :     Misc.  Thunderstorms  Icing  Turbulence  Mountain Waves  Volcanic Ashes






- Airport Elevation : 238 ft
- IATA code : FAB


EGLF - Farnborough

CURRENT METAR :
  • 192150Z AUTO 21005KT 9999 NCD 20/15 Q1013

EXPIRED METARs :
  • 192120Z AUTO 21004KT 9999 NCD 21/15 Q1013
  • 192050Z AUTO 25003KT 170V310 9999 NCD 22/16 Q1013
  • 192020Z AUTO 20005KT 9999 NCD 22/16 Q1013
  • 191950Z AUTO 22007KT 9999 NCD 23/17 Q1013
  • 191920Z AUTO 20007KT 9999 NCD 25/17 Q1013
  • 191850Z AUTO 20009KT 9999 NCD 26/17 Q1013
  • 191820Z AUTO 21010KT 9999 NCD 27/16 Q1013
  • 191750Z AUTO 21009KT 9999 NCD 28/16 Q1013
  • 191720Z AUTO 22010KT 9999 NCD 28/16 Q1013

Expired Forecast.
ATIS : +44 09063 800 400 (*282)



MET'MAP, your aeronautical weather chart ! - Copyright ORBIFLY December 2007 - Disclaimer

ORBIFLY MET'MAP TEAM :

Programming & Development : Alexandra Zaïnal
Original concept : Baudouin d'Aumeries
Technical & hardware support : Manuel Goepfert
Assistance : Marc-Olivier Méhu




SOURCES & CREDITS :

   NOAA